sensor_id;sensor_type;location;lat;lon;timestamp;P1;durP1;ratioP1;P2;durP2;ratioP2
63959;SDS011;50136;51.374;0.096;2022-07-23T00:00:47;7.30;;;3.13;;
63959;SDS011;50136;51.374;0.096;2022-07-23T00:10:51;8.20;;;3.10;;
63959;SDS011;50136;51.374;0.096;2022-07-23T00:20:53;8.38;;;3.72;;
63959;SDS011;50136;51.374;0.096;2022-07-23T00:30:56;9.25;;;4.38;;
63959;SDS011;50136;51.374;0.096;2022-07-23T00:40:58;4.30;;;2.53;;
63959;SDS011;50136;51.374;0.096;2022-07-23T00:51:01;5.97;;;2.90;;
63959;SDS011;50136;51.374;0.096;2022-07-23T01:01:04;8.27;;;2.92;;
63959;SDS011;50136;51.374;0.096;2022-07-23T01:11:07;8.73;;;3.17;;
63959;SDS011;50136;51.374;0.096;2022-07-23T01:21:10;6.90;;;2.97;;
63959;SDS011;50136;51.374;0.096;2022-07-23T01:31:15;6.80;;;3.33;;
63959;SDS011;50136;51.374;0.096;2022-07-23T01:41:16;11.02;;;3.75;;
63959;SDS011;50136;51.374;0.096;2022-07-23T01:51:20;4.93;;;2.88;;
63959;SDS011;50136;51.374;0.096;2022-07-23T02:01:22;9.05;;;3.17;;
63959;SDS011;50136;51.374;0.096;2022-07-23T02:11:26;7.28;;;2.45;;
63959;SDS011;50136;51.374;0.096;2022-07-23T02:21:28;6.68;;;2.20;;
63959;SDS011;50136;51.374;0.096;2022-07-23T02:31:31;5.50;;;2.70;;
63959;SDS011;50136;51.374;0.096;2022-07-23T02:41:34;7.20;;;2.08;;
63959;SDS011;50136;51.374;0.096;2022-07-23T02:51:37;6.45;;;2.22;;
63959;SDS011;50136;51.374;0.096;2022-07-23T03:01:39;5.55;;;2.17;;
63959;SDS011;50136;51.374;0.096;2022-07-23T03:11:42;7.55;;;2.13;;
63959;SDS011;50136;51.374;0.096;2022-07-23T03:21:44;5.20;;;2.63;;
63959;SDS011;50136;51.374;0.096;2022-07-23T03:31:47;5.70;;;2.67;;
63959;SDS011;50136;51.374;0.096;2022-07-23T03:41:49;12.55;;;3.05;;
63959;SDS011;50136;51.374;0.096;2022-07-23T03:51:53;7.30;;;2.60;;
63959;SDS011;50136;51.374;0.096;2022-07-23T04:01:55;5.78;;;2.78;;
63959;SDS011;50136;51.374;0.096;2022-07-23T04:11:58;5.63;;;2.80;;
63959;SDS011;50136;51.374;0.096;2022-07-23T04:22:00;5.60;;;2.53;;
63959;SDS011;50136;51.374;0.096;2022-07-23T04:32:04;7.70;;;3.47;;
63959;SDS011;50136;51.374;0.096;2022-07-23T04:42:06;8.20;;;3.00;;
63959;SDS011;50136;51.374;0.096;2022-07-23T04:52:10;7.68;;;2.90;;
63959;SDS011;50136;51.374;0.096;2022-07-23T05:02:12;10.48;;;3.20;;
63959;SDS011;50136;51.374;0.096;2022-07-23T05:12:15;7.05;;;2.53;;
63959;SDS011;50136;51.374;0.096;2022-07-23T05:22:17;8.07;;;3.22;;
63959;SDS011;50136;51.374;0.096;2022-07-23T05:32:20;5.75;;;2.88;;
63959;SDS011;50136;51.374;0.096;2022-07-23T05:42:25;9.10;;;3.58;;
63959;SDS011;50136;51.374;0.096;2022-07-23T05:52:28;15.98;;;4.18;;
63959;SDS011;50136;51.374;0.096;2022-07-23T06:02:30;8.13;;;3.33;;
63959;SDS011;50136;51.374;0.096;2022-07-23T06:12:34;10.38;;;3.35;;
63959;SDS011;50136;51.374;0.096;2022-07-23T06:22:36;8.95;;;4.97;;
63959;SDS011;50136;51.374;0.096;2022-07-23T06:32:40;6.30;;;3.05;;
63959;SDS011;50136;51.374;0.096;2022-07-23T06:42:42;5.95;;;3.08;;
63959;SDS011;50136;51.374;0.096;2022-07-23T06:52:45;10.13;;;3.78;;
63959;SDS011;50136;51.374;0.096;2022-07-23T07:02:47;5.70;;;2.85;;
63959;SDS011;50136;51.374;0.096;2022-07-23T07:12:51;8.93;;;5.70;;
63959;SDS011;50136;51.374;0.096;2022-07-23T07:22:53;7.35;;;3.22;;
63959;SDS011;50136;51.374;0.096;2022-07-23T07:32:56;8.15;;;3.28;;
63959;SDS011;50136;51.374;0.096;2022-07-23T07:42:58;8.45;;;3.85;;
63959;SDS011;50136;51.374;0.096;2022-07-23T07:53:02;7.45;;;3.72;;
63959;SDS011;50136;51.374;0.096;2022-07-23T08:03:04;9.70;;;2.78;;
63959;SDS011;50136;51.374;0.096;2022-07-23T08:13:07;7.32;;;4.07;;
63959;SDS011;50136;51.374;0.096;2022-07-23T08:23:13;4.25;;;2.50;;
63959;SDS011;50136;51.374;0.096;2022-07-23T08:33:17;4.38;;;2.72;;
63959;SDS011;50136;51.374;0.096;2022-07-23T08:43:34;6.93;;;2.00;;
63959;SDS011;50136;51.374;0.096;2022-07-23T08:53:38;4.13;;;2.03;;
63959;SDS011;50136;51.374;0.096;2022-07-23T09:03:40;4.63;;;1.80;;
63959;SDS011;50136;51.374;0.096;2022-07-23T09:13:45;4.35;;;2.45;;
63959;SDS011;50136;51.374;0.096;2022-07-23T09:23:49;5.68;;;2.42;;
63959;SDS011;50136;51.374;0.096;2022-07-23T09:34:06;4.30;;;1.83;;
63959;SDS011;50136;51.374;0.096;2022-07-23T09:44:09;6.25;;;2.30;;
63959;SDS011;50136;51.374;0.096;2022-07-23T09:54:28;4.97;;;2.45;;
63959;SDS011;50136;51.374;0.096;2022-07-23T10:26:53;7.28;;;1.70;;
63959;SDS011;50136;51.374;0.096;2022-07-23T10:58:01;4.50;;;1.98;;
63959;SDS011;50136;51.374;0.096;2022-07-23T11:08:14;4.47;;;2.40;;
63959;SDS011;50136;51.374;0.096;2022-07-23T11:18:21;6.65;;;1.90;;
63959;SDS011;50136;51.374;0.096;2022-07-23T11:40:25;4.75;;;2.65;;
63959;SDS011;50136;51.374;0.096;2022-07-23T11:50:27;3.00;;;1.50;;
63959;SDS011;50136;51.374;0.096;2022-07-23T12:11:20;3.78;;;1.60;;
63959;SDS011;50136;51.374;0.096;2022-07-23T12:32:35;2.65;;;1.92;;
63959;SDS011;50136;51.374;0.096;2022-07-23T12:42:45;2.72;;;1.60;;
63959;SDS011;50136;51.374;0.096;2022-07-23T12:52:50;3.35;;;1.63;;
63959;SDS011;50136;51.374;0.096;2022-07-23T13:03:02;4.20;;;1.98;;
63959;SDS011;50136;51.374;0.096;2022-07-23T13:13:08;4.30;;;1.85;;
63959;SDS011;50136;51.374;0.096;2022-07-23T13:23:16;2.97;;;1.73;;
63959;SDS011;50136;51.374;0.096;2022-07-23T13:33:21;2.75;;;1.33;;
63959;SDS011;50136;51.374;0.096;2022-07-23T13:43:24;5.57;;;1.65;;
63959;SDS011;50136;51.374;0.096;2022-07-23T13:53:28;5.10;;;1.92;;
63959;SDS011;50136;51.374;0.096;2022-07-23T14:03:30;4.43;;;1.60;;
63959;SDS011;50136;51.374;0.096;2022-07-23T14:13:34;3.38;;;1.55;;
63959;SDS011;50136;51.374;0.096;2022-07-23T14:23:36;2.97;;;1.90;;
63959;SDS011;50136;51.374;0.096;2022-07-23T14:33:41;4.65;;;2.50;;
63959;SDS011;50136;51.374;0.096;2022-07-23T14:55:15;4.50;;;2.58;;
63959;SDS011;50136;51.374;0.096;2022-07-23T15:15:30;5.50;;;1.67;;
63959;SDS011;50136;51.374;0.096;2022-07-23T15:25:32;3.58;;;1.58;;
63959;SDS011;50136;51.374;0.096;2022-07-23T15:35:36;3.25;;;1.67;;
63959;SDS011;50136;51.374;0.096;2022-07-23T15:45:39;4.35;;;1.67;;
63959;SDS011;50136;51.374;0.096;2022-07-23T15:55:57;3.47;;;1.77;;
63959;SDS011;50136;51.374;0.096;2022-07-23T16:06:04;3.95;;;2.15;;
63959;SDS011;50136;51.374;0.096;2022-07-23T16:16:20;4.07;;;1.90;;
63959;SDS011;50136;51.374;0.096;2022-07-23T16:26:22;13.68;;;2.00;;
63959;SDS011;50136;51.374;0.096;2022-07-23T16:36:26;2.42;;;1.58;;
63959;SDS011;50136;51.374;0.096;2022-07-23T16:46:28;2.22;;;1.63;;
63959;SDS011;50136;51.374;0.096;2022-07-23T16:56:31;5.18;;;1.60;;
63959;SDS011;50136;51.374;0.096;2022-07-23T17:06:40;2.28;;;1.30;;
63959;SDS011;50136;51.374;0.096;2022-07-23T17:16:43;3.42;;;1.38;;
63959;SDS011;50136;51.374;0.096;2022-07-23T17:26:45;2.88;;;1.58;;
63959;SDS011;50136;51.374;0.096;2022-07-23T17:36:51;4.40;;;2.13;;
63959;SDS011;50136;51.374;0.096;2022-07-23T17:46:53;2.25;;;1.60;;
63959;SDS011;50136;51.374;0.096;2022-07-23T17:56:56;2.35;;;1.95;;
63959;SDS011;50136;51.374;0.096;2022-07-23T18:07:04;2.45;;;2.00;;
63959;SDS011;50136;51.374;0.096;2022-07-23T18:17:12;4.15;;;2.05;;
63959;SDS011;50136;51.374;0.096;2022-07-23T18:27:14;4.45;;;1.67;;
63959;SDS011;50136;51.374;0.096;2022-07-23T18:37:17;2.28;;;1.80;;
63959;SDS011;50136;51.374;0.096;2022-07-23T18:47:38;3.03;;;1.98;;
63959;SDS011;50136;51.374;0.096;2022-07-23T18:57:42;2.20;;;1.80;;
63959;SDS011;50136;51.374;0.096;2022-07-23T19:07:44;2.85;;;1.67;;
63959;SDS011;50136;51.374;0.096;2022-07-23T19:17:48;4.93;;;1.77;;
63959;SDS011;50136;51.374;0.096;2022-07-23T19:27:49;2.88;;;1.92;;
63959;SDS011;50136;51.374;0.096;2022-07-23T19:37:53;3.17;;;2.40;;
63959;SDS011;50136;51.374;0.096;2022-07-23T19:47:55;2.58;;;1.60;;
63959;SDS011;50136;51.374;0.096;2022-07-23T19:57:58;3.13;;;2.13;;
63959;SDS011;50136;51.374;0.096;2022-07-23T20:08:00;3.90;;;2.20;;
63959;SDS011;50136;51.374;0.096;2022-07-23T20:18:04;3.03;;;1.83;;
63959;SDS011;50136;51.374;0.096;2022-07-23T20:28:06;7.35;;;2.38;;
63959;SDS011;50136;51.374;0.096;2022-07-23T20:38:10;6.47;;;2.50;;
63959;SDS011;50136;51.374;0.096;2022-07-23T20:48:21;4.38;;;2.45;;
63959;SDS011;50136;51.374;0.096;2022-07-23T20:58:30;3.03;;;2.38;;
63959;SDS011;50136;51.374;0.096;2022-07-23T21:08:32;4.72;;;2.60;;
63959;SDS011;50136;51.374;0.096;2022-07-23T21:18:36;5.72;;;2.35;;
63959;SDS011;50136;51.374;0.096;2022-07-23T21:28:38;5.35;;;2.55;;
63959;SDS011;50136;51.374;0.096;2022-07-23T21:38:41;6.70;;;2.78;;
63959;SDS011;50136;51.374;0.096;2022-07-23T21:48:43;5.05;;;2.80;;
63959;SDS011;50136;51.374;0.096;2022-07-23T21:58:47;3.30;;;2.25;;
63959;SDS011;50136;51.374;0.096;2022-07-23T22:08:49;7.85;;;4.18;;
63959;SDS011;50136;51.374;0.096;2022-07-23T22:18:52;6.80;;;3.15;;
63959;SDS011;50136;51.374;0.096;2022-07-23T22:28:54;6.53;;;2.78;;
63959;SDS011;50136;51.374;0.096;2022-07-23T22:38:58;4.72;;;2.95;;
63959;SDS011;50136;51.374;0.096;2022-07-23T22:49:00;7.28;;;3.30;;
63959;SDS011;50136;51.374;0.096;2022-07-23T22:59:04;5.18;;;2.92;;
63959;SDS011;50136;51.374;0.096;2022-07-23T23:09:26;6.78;;;3.15;;
63959;SDS011;50136;51.374;0.096;2022-07-23T23:19:30;3.83;;;2.33;;
63959;SDS011;50136;51.374;0.096;2022-07-23T23:29:32;7.47;;;3.33;;
63959;SDS011;50136;51.374;0.096;2022-07-23T23:39:35;5.07;;;2.92;;
63959;SDS011;50136;51.374;0.096;2022-07-23T23:49:37;6.45;;;3.30;;
63959;SDS011;50136;51.374;0.096;2022-07-23T23:59:40;3.90;;;2.90;;
